昆明 の空港の天気 - METARとTAF

昆明巫家餽国際空港 ( ZPPP / KMG ) - 中国 雲南省昆明市
飛行場実況気象(Metar)
観測時間05/28 17:00 CST (05/28 09:00 UTC)
風向・風速西南西 7m/s
視程10km以上
天気現象
少しの雲 雲底高度 910m
全天の4割程度の雲 雲底高度 910m
気温27℃
湿度42%
気圧1010hPa
METARZPPP 280900Z 24007MPS 9999 FEW030TCU SCT030 27/13 Q1010 NOSIG
過去の天気等 Google飛行場航空写真 Wunderground天気予報

過去48時間のMETAR

飛行場予報(TAF)
発表時間: 5/28 11:02 CST (5/28 03:02 UTC)
予報対象時間: 28日14時 CST ~ 29日14時 CST
風向・風速南西 6m/s
視程10km以上
全天の4割程度の雲 雲底高度 790m
全天の8割程度の雲 雲底高度 1220m
TAF ZPPP 280302Z 2806/2906 22006MPS 9999 SCT026 BKN040 TX26/2808Z TN15/2823Z